Time;durP1;ratioP1;P1;durP2;ratioP2;P2;SDS_P1;SDS_P2;PMS_P1;PMS_P2;Temp;Humidity;BMP_temperature;BMP_pressure;BME280_temperature;BME280_humidity;BME280_pressure;Samples;Min_cycle;Max_cycle;Signal;HPM_P1;HPM_P2
2023/02/26 00:01:41;;;;;;;6.40;2.30;;;0.10;99.90;;;;;;4898221;29;20520;-73
2023/02/26 00:04:10;;;;;;;6.47;2.90;;;0.10;99.90;;;;;;4897264;29;20453;-73
2023/02/26 00:06:51;;;;;;;8.00;3.60;;;0.10;99.90;;;;;;4898151;29;20445;-73
2023/02/26 00:09:22;;;;;;;13.00;5.90;;;0.10;99.90;;;;;;4898530;29;20907;-73
2023/02/26 00:11:52;;;;;;;15.67;7.17;;;0.10;99.90;;;;;;4896820;29;20469;-73
2023/02/26 00:14:20;;;;;;;15.37;7.10;;;0.10;99.90;;;;;;4898632;29;20433;-74
2023/02/26 00:16:58;;;;;;;7.03;4.47;;;0.10;99.90;;;;;;4898429;29;20453;-74
2023/02/26 00:19:26;;;;;;;6.43;3.53;;;0.00;99.90;;;;;;4898732;29;20438;-74
2023/02/26 00:21:55;;;;;;;5.20;2.87;;;0.10;99.90;;;;;;4897901;29;21003;-74
2023/02/26 00:24:23;;;;;;;5.40;2.40;;;0.00;99.90;;;;;;4912730;29;20464;-73
2023/02/26 00:26:53;;;;;;;3.90;2.10;;;0.00;99.90;;;;;;4898036;29;20951;-73
2023/02/26 00:29:22;;;;;;;5.10;2.47;;;0.00;99.90;;;;;;4898020;29;20955;-73
2023/02/26 00:31:50;;;;;;;4.40;2.20;;;0.00;99.90;;;;;;4912441;29;20481;-73
2023/02/26 00:34:19;;;;;;;7.50;2.27;;;0.00;99.90;;;;;;4897560;29;20453;-73
2023/02/26 00:36:57;;;;;;;6.53;1.90;;;0.00;99.90;;;;;;4897017;29;21001;-72
2023/02/26 00:39:36;;;;;;;6.43;2.23;;;0.00;99.90;;;;;;4896754;29;20453;-73
2023/02/26 00:42:07;;;;;;;4.40;2.87;;;0.00;99.90;;;;;;4896684;29;20468;-73
2023/02/26 00:44:35;;;;;;;4.07;1.87;;;-0.10;99.90;;;;;;4898488;29;20896;-73
2023/02/26 00:47:09;;;;;;;5.30;1.70;;;-0.10;99.90;;;;;;4896720;29;20456;-73
2023/02/26 00:49:49;;;;;;;4.03;1.63;;;-0.10;99.90;;;;;;4896802;29;20453;-73
2023/02/26 00:52:27;;;;;;;4.70;1.70;;;-0.10;99.90;;;;;;4896545;29;21008;-73
2023/02/26 00:54:55;;;;;;;4.30;1.60;;;-0.10;99.90;;;;;;4896632;29;20449;-73
2023/02/26 00:57:25;;;;;;;4.37;1.73;;;-0.10;99.90;;;;;;4896576;29;20457;-74
2023/02/26 00:59:53;;;;;;;3.50;1.40;;;-0.10;99.90;;;;;;4896869;29;20459;-74
2023/02/26 01:02:21;;;;;;;5.10;2.10;;;-0.20;99.90;;;;;;4896409;29;20974;-73
2023/02/26 01:04:50;;;;;;;4.20;2.30;;;-0.20;99.90;;;;;;4897727;29;20442;-73
2023/02/26 01:07:22;;;;;;;6.10;1.83;;;-0.20;99.90;;;;;;4896429;29;20461;-74
2023/02/26 01:09:51;;;;;;;4.80;1.73;;;-0.20;99.90;;;;;;4898962;29;21014;-73
2023/02/26 01:12:20;;;;;;;4.17;1.37;;;-0.20;99.90;;;;;;4915466;29;20483;-73
2023/02/26 01:14:51;;;;;;;3.77;1.40;;;-0.20;99.90;;;;;;4899794;29;20457;-73
2023/02/26 01:17:23;;;;;;;6.60;1.37;;;-0.30;99.90;;;;;;4899932;29;20509;-73
2023/02/26 01:19:55;;;;;;;4.43;1.47;;;-0.30;99.90;;;;;;4899800;29;20449;-73
2023/02/26 01:22:28;;;;;;;4.90;1.43;;;-0.30;99.90;;;;;;4899612;29;20477;-73
2023/02/26 01:25:02;;;;;;;4.53;1.40;;;-0.30;99.90;;;;;;4899681;29;20797;-73
2023/02/26 01:27:30;;;;;;;3.90;1.43;;;-0.30;99.90;;;;;;4901425;29;20445;-73
2023/02/26 01:30:01;;;;;;;4.10;1.57;;;-0.30;99.90;;;;;;4900818;29;20799;-73
2023/02/26 01:32:42;;;;;;;6.17;1.57;;;-0.30;99.90;;;;;;4899454;29;20484;-73
2023/02/26 01:35:24;;;;;;;6.20;1.70;;;-0.30;99.90;;;;;;4899553;29;20860;-74
2023/02/26 01:37:57;;;;;;;4.93;1.70;;;-0.30;99.90;;;;;;4899494;29;20450;-74
2023/02/26 01:41:00;;;;;;;4.03;1.40;;;-0.30;99.90;;;;;;4899521;29;20445;-74
2023/02/26 01:43:35;;;;;;;4.53;1.70;;;-0.30;99.90;;;;;;4894975;29;20437;-73
2023/02/26 01:46:13;;;;;;;5.60;1.73;;;-0.30;99.90;;;;;;4899427;29;20459;-74
2023/02/26 01:48:50;;;;;;;5.20;2.00;;;-0.30;99.90;;;;;;4899353;29;20567;-74
2023/02/26 01:51:19;;;;;;;6.40;1.53;;;-0.40;99.90;;;;;;4914933;29;20819;-74
2023/02/26 01:53:47;;;;;;;4.83;1.57;;;-0.40;99.90;;;;;;4899088;29;20476;-73
2023/02/26 01:56:18;;;;;;;4.03;1.50;;;-0.40;99.90;;;;;;4900893;29;20441;-73
2023/02/26 01:58:48;;;;;;;6.23;2.13;;;-0.40;99.90;;;;;;4899099;29;20540;-73
2023/02/26 02:01:17;;;;;;;4.47;1.50;;;-0.40;99.90;;;;;;4898950;29;20453;-73
2023/02/26 02:03:46;;;;;;;5.03;1.63;;;-0.40;99.90;;;;;;4899049;29;20472;-73
2023/02/26 02:06:18;;;;;;;7.43;1.73;;;-0.40;99.90;;;;;;4899186;29;20484;-73
2023/02/26 02:08:46;;;;;;;4.90;1.40;;;-0.40;99.90;;;;;;4898938;29;20454;-73
2023/02/26 02:11:15;;;;;;;4.50;1.40;;;-0.40;99.90;;;;;;4898784;29;20901;-73
2023/02/26 02:13:55;;;;;;;4.30;2.40;;;-0.40;99.90;;;;;;4898758;29;20481;-73
2023/02/26 02:16:36;;;;;;;5.60;1.80;;;-0.40;99.90;;;;;;4898821;29;20473;-73
2023/02/26 02:19:30;;;;;;;7.40;1.87;;;-0.40;99.90;;;;;;4898853;29;20445;-72
2023/02/26 02:22:18;;;;;;;4.87;1.97;;;-0.40;99.90;;;;;;4897849;29;20509;-72
2023/02/26 02:25:02;;;;;;;3.70;1.50;;;-0.50;99.90;;;;;;4898605;29;20441;-72
2023/02/26 02:27:39;;;;;;;5.37;1.47;;;-0.50;99.90;;;;;;4899805;29;20429;-72
2023/02/26 02:30:20;;;;;;;7.27;1.60;;;-0.50;99.90;;;;;;4900288;29;20481;-73
2023/02/26 02:32:57;;;;;;;4.50;1.33;;;-0.50;99.90;;;;;;4898345;29;20481;-73
2023/02/26 02:35:31;;;;;;;4.90;1.70;;;-0.50;99.90;;;;;;4898526;29;20438;-73
2023/02/26 02:38:07;;;;;;;3.80;1.80;;;-0.50;99.90;;;;;;4898351;29;20507;-72
2023/02/26 02:40:39;;;;;;;6.30;2.10;;;-0.50;99.90;;;;;;4900061;29;20452;-73
2023/02/26 02:43:11;;;;;;;4.50;1.97;;;-0.50;99.90;;;;;;4899563;29;20489;-73
2023/02/26 02:45:43;;;;;;;4.33;1.30;;;-0.50;99.90;;;;;;4899966;29;20788;-73
2023/02/26 02:48:18;;;;;;;3.10;1.20;;;-0.50;99.90;;;;;;4898257;29;20446;-73
2023/02/26 02:50:51;;;;;;;5.50;1.87;;;-0.60;99.90;;;;;;4914088;29;20441;-73
2023/02/26 02:53:24;;;;;;;4.53;1.47;;;-0.50;99.90;;;;;;4897933;29;20477;-73
2023/02/26 02:55:57;;;;;;;4.23;1.50;;;-0.50;99.90;;;;;;4899260;29;20425;-73
2023/02/26 02:58:30;;;;;;;3.90;1.90;;;-0.50;99.90;;;;;;4899466;29;20437;-73
2023/02/26 03:01:01;;;;;;;5.63;1.90;;;-0.60;99.90;;;;;;4899241;29;20429;-73
2023/02/26 03:03:37;;;;;;;3.27;1.33;;;-0.50;99.90;;;;;;4897929;29;20912;-72
2023/02/26 03:06:05;;;;;;;4.77;1.87;;;-0.50;99.90;;;;;;4899381;29;20425;-73
2023/02/26 03:08:37;;;;;;;6.00;1.70;;;-0.50;99.90;;;;;;4913500;29;20616;-73
2023/02/26 03:11:05;;;;;;;3.70;1.80;;;-0.60;99.90;;;;;;4897922;29;20448;-73
2023/02/26 03:13:34;;;;;;;5.80;2.00;;;-0.60;99.90;;;;;;4898807;29;20846;-72
2023/02/26 03:16:25;;;;;;;4.23;1.93;;;-0.60;99.90;;;;;;4897771;29;20933;-73
2023/02/26 03:19:02;;;;;;;4.17;1.53;;;-0.60;99.90;;;;;;4897849;29;20533;-73
2023/02/26 03:21:43;;;;;;;4.20;1.53;;;-0.60;99.90;;;;;;4897685;29;20495;-73
2023/02/26 03:24:24;;;;;;;5.27;1.80;;;-0.60;99.90;;;;;;4898037;29;20453;-73
2023/02/26 03:26:58;;;;;;;4.37;1.90;;;-0.60;99.90;;;;;;4898719;29;20451;-72
2023/02/26 03:29:33;;;;;;;4.77;1.60;;;-0.60;99.90;;;;;;4897428;29;20805;-73
2023/02/26 03:32:07;;;;;;;3.93;1.53;;;-0.60;99.90;;;;;;4898518;29;20471;-73
2023/02/26 03:34:41;;;;;;;3.90;1.50;;;-0.60;99.90;;;;;;4897353;29;20478;-72
2023/02/26 03:37:16;;;;;;;4.37;1.70;;;-0.70;99.90;;;;;;4897636;29;20968;-73
2023/02/26 03:39:49;;;;;;;5.07;1.93;;;-0.60;99.90;;;;;;4897381;29;20488;-73
2023/02/26 03:42:23;;;;;;;4.80;1.60;;;-0.60;99.90;;;;;;4897285;29;20473;-73
2023/02/26 03:44:59;;;;;;;4.03;1.60;;;-0.70;99.90;;;;;;4897289;29;20448;-73
2023/02/26 03:47:29;;;;;;;5.30;1.60;;;-0.70;99.90;;;;;;4897245;29;20442;-73
2023/02/26 03:50:05;;;;;;;4.10;1.70;;;-0.70;99.90;;;;;;4897750;29;20818;-73
2023/02/26 03:52:44;;;;;;;3.03;1.30;;;-0.70;99.90;;;;;;4897200;29;21089;-73
2023/02/26 03:55:36;;;;;;;3.87;1.33;;;-0.70;99.90;;;;;;4897420;29;20859;-72
2023/02/26 03:58:21;;;;;;;6.20;1.57;;;-0.70;99.90;;;;;;4897193;29;20461;-72
2023/02/26 04:01:07;;;;;;;4.33;1.73;;;-0.70;99.90;;;;;;4897132;29;20457;-73
2023/02/26 04:03:42;;;;;;;3.40;1.40;;;-0.70;99.90;;;;;;4897959;29;20453;-73
2023/02/26 04:06:11;;;;;;;4.50;1.70;;;-0.70;99.90;;;;;;4897029;29;20480;-72
2023/02/26 04:08:40;;;;;;;4.13;1.60;;;-0.70;99.90;;;;;;4897017;29;20514;-72
2023/02/26 04:11:11;;;;;;;4.77;1.40;;;-0.70;99.90;;;;;;4896998;29;20544;-72
2023/02/26 04:13:39;;;;;;;5.27;1.83;;;-0.70;99.90;;;;;;4898411;29;20463;-73
2023/02/26 04:16:07;;;;;;;4.77;1.77;;;-0.70;99.90;;;;;;4896940;29;20536;-73
2023/02/26 04:18:36;;;;;;;3.87;1.60;;;-0.70;99.90;;;;;;4896893;29;20453;-72
2023/02/26 04:21:07;;;;;;;4.30;1.70;;;-0.70;99.90;;;;;;4896954;29;20472;-72
2023/02/26 04:23:36;;;;;;;4.43;1.77;;;-0.70;99.90;;;;;;4898093;29;20484;-72
2023/02/26 04:26:05;;;;;;;5.67;1.80;;;-0.70;99.90;;;;;;4896802;29;20453;-72
2023/02/26 04:28:36;;;;;;;3.90;1.73;;;-0.70;99.90;;;;;;4897091;29;20520;-72
2023/02/26 04:31:05;;;;;;;7.20;1.60;;;-0.70;99.90;;;;;;4896915;29;20461;-72
2023/02/26 04:33:34;;;;;;;4.87;1.60;;;-0.70;99.90;;;;;;4896818;29;20481;-72
2023/02/26 04:36:02;;;;;;;5.40;1.53;;;-0.70;99.90;;;;;;4896769;29;20445;-73
2023/02/26 04:38:30;;;;;;;5.53;1.57;;;-0.60;99.90;;;;;;4896745;29;20830;-72
2023/02/26 04:41:00;;;;;;;5.30;1.40;;;-0.60;99.90;;;;;;4897941;29;20450;-73
2023/02/26 04:43:29;;;;;;;5.00;1.70;;;-0.60;99.90;;;;;;4897452;29;20863;-73
2023/02/26 04:46:13;;;;;;;3.77;1.10;;;-0.60;99.90;;;;;;4900653;29;20456;-73
2023/02/26 04:48:42;;;;;;;5.07;1.50;;;-0.70;99.90;;;;;;4901897;29;20457;-73
2023/02/26 04:51:10;;;;;;;5.80;2.00;;;-0.70;99.90;;;;;;4900249;29;20554;-73
2023/02/26 04:53:38;;;;;;;5.63;2.80;;;-0.70;99.90;;;;;;4900082;29;20552;-73
2023/02/26 04:56:09;;;;;;;4.70;1.53;;;-0.60;99.90;;;;;;4900108;29;20464;-73
2023/02/26 04:58:37;;;;;;;4.83;1.70;;;-0.60;99.90;;;;;;4903944;29;20484;-73
2023/02/26 05:01:12;;;;;;;3.97;1.33;;;-0.70;99.90;;;;;;4907429;29;20449;-73
2023/02/26 05:03:40;;;;;;;3.93;1.40;;;-0.60;99.90;;;;;;4906451;29;20449;-73
2023/02/26 05:06:09;;;;;;;6.57;1.50;;;-0.70;99.90;;;;;;4907506;29;20492;-73
2023/02/26 05:08:41;;;;;;;4.33;1.53;;;-0.60;99.90;;;;;;4907685;29;20938;-73
2023/02/26 05:11:10;;;;;;;4.70;1.70;;;-0.70;99.90;;;;;;4907617;29;20448;-73
2023/02/26 05:13:39;;;;;;;4.83;1.60;;;-0.60;99.90;;;;;;4906565;29;20449;-73
2023/02/26 05:16:08;;;;;;;5.00;2.30;;;-0.60;99.90;;;;;;4906702;29;20473;-72
2023/02/26 05:18:37;;;;;;;3.90;1.50;;;-0.70;99.90;;;;;;4907262;29;20528;-72
2023/02/26 05:21:05;;;;;;;6.20;2.50;;;-0.60;99.90;;;;;;4902265;29;20469;-72
2023/02/26 05:23:34;;;;;;;4.33;1.33;;;-0.70;99.90;;;;;;4902528;29;20454;-73
2023/02/26 05:26:02;;;;;;;5.67;1.57;;;-0.70;99.90;;;;;;4901355;29;20816;-73
2023/02/26 05:28:32;;;;;;;4.43;1.80;;;-0.70;99.90;;;;;;4900606;29;20509;-73
2023/02/26 05:31:01;;;;;;;4.70;1.70;;;-0.70;99.90;;;;;;4899570;29;20461;-72
2023/02/26 05:33:29;;;;;;;6.70;2.30;;;-0.70;99.90;;;;;;4899592;29;20456;-73
2023/02/26 05:35:57;;;;;;;4.53;1.50;;;-0.70;99.90;;;;;;4900714;29;20888;-74
2023/02/26 05:38:25;;;;;;;10.23;1.80;;;-0.70;99.90;;;;;;4899584;29;20449;-73
2023/02/26 05:40:56;;;;;;;4.57;1.57;;;-0.70;99.90;;;;;;4899503;29;20465;-73
2023/02/26 05:43:25;;;;;;;4.10;1.80;;;-0.70;99.90;;;;;;4899523;29;20476;-73
2023/02/26 05:45:55;;;;;;;4.23;1.63;;;-0.70;99.90;;;;;;4900564;29;20784;-73
2023/02/26 05:48:23;;;;;;;4.00;1.70;;;-0.80;99.90;;;;;;4899496;29;20446;-73
2023/02/26 05:50:52;;;;;;;4.17;1.47;;;-0.80;99.90;;;;;;4900390;29;20452;-73
2023/02/26 05:53:20;;;;;;;5.87;2.67;;;-0.80;99.90;;;;;;4900382;29;20461;-73
2023/02/26 05:55:49;;;;;;;5.43;1.37;;;-0.80;99.90;;;;;;4899137;29;20480;-73
2023/02/26 05:58:17;;;;;;;5.50;1.50;;;-0.80;99.90;;;;;;4899246;29;20488;-72
2023/02/26 06:00:45;;;;;;;3.30;1.27;;;-0.80;99.90;;;;;;4899134;29;20457;-74
2023/02/26 06:03:15;;;;;;;4.00;1.53;;;-0.80;99.90;;;;;;4901072;29;20940;-72
2023/02/26 06:05:43;;;;;;;4.70;1.63;;;-0.80;99.90;;;;;;4900180;29;20441;-73
2023/02/26 06:08:14;;;;;;;5.23;1.80;;;-0.90;99.90;;;;;;4900182;29;20441;-72
2023/02/26 06:10:42;;;;;;;5.70;1.90;;;-0.90;99.90;;;;;;4900162;29;20457;-72
2023/02/26 06:13:10;;;;;;;5.67;1.80;;;-0.90;99.90;;;;;;4900027;29;20476;-73
2023/02/26 06:15:38;;;;;;;5.17;1.57;;;-0.90;99.90;;;;;;4898791;29;20584;-73
2023/02/26 06:18:07;;;;;;;6.10;2.23;;;-0.90;99.90;;;;;;4900378;29;20453;-72
2023/02/26 06:20:37;;;;;;;5.40;2.10;;;-0.90;99.90;;;;;;4898631;29;20471;-73
2023/02/26 06:23:05;;;;;;;4.63;2.03;;;-0.90;99.90;;;;;;4899891;29;20462;-72
2023/02/26 06:25:33;;;;;;;5.37;2.00;;;-0.90;99.90;;;;;;4898601;29;20453;-73
2023/02/26 06:28:01;;;;;;;4.50;1.93;;;-0.90;99.90;;;;;;4898787;29;20875;-72
2023/02/26 06:30:29;;;;;;;4.40;1.50;;;-1.00;99.90;;;;;;4900094;29;20449;-73
2023/02/26 06:32:57;;;;;;;3.93;1.60;;;-1.00;99.90;;;;;;4898747;29;20536;-72
2023/02/26 06:35:27;;;;;;;6.30;1.60;;;-1.00;99.90;;;;;;4900040;29;20525;-72
2023/02/26 06:37:57;;;;;;;5.90;1.93;;;-1.00;99.90;;;;;;4900190;29;20464;-72
2023/02/26 06:40:25;;;;;;;3.97;1.67;;;-1.00;99.90;;;;;;4898479;29;20465;-72
2023/02/26 06:42:53;;;;;;;4.00;1.57;;;-1.00;99.90;;;;;;4899598;29;20462;-72
2023/02/26 06:45:21;;;;;;;5.43;1.80;;;-1.00;99.90;;;;;;4898212;29;20453;-72
2023/02/26 06:47:49;;;;;;;4.60;1.53;;;-1.00;99.90;;;;;;4899410;29;20532;-72
2023/02/26 06:50:17;;;;;;;6.30;1.67;;;-1.00;99.90;;;;;;4899622;29;20474;-74
2023/02/26 06:52:46;;;;;;;8.07;3.40;;;-1.00;99.90;;;;;;4897993;29;20851;-72
2023/02/26 06:55:15;;;;;;;7.30;2.70;;;-1.10;99.90;;;;;;4897993;29;20473;-72
2023/02/26 06:57:43;;;;;;;6.80;3.00;;;-1.00;99.90;;;;;;4899199;29;20447;-73
2023/02/26 07:00:12;;;;;;;7.63;2.40;;;-1.00;99.90;;;;;;4899219;29;20452;-73
2023/02/26 07:02:40;;;;;;;7.80;2.63;;;-1.10;99.90;;;;;;4899179;29;21042;-72
2023/02/26 07:05:09;;;;;;;4.63;2.10;;;-1.10;99.90;;;;;;4899162;29;20438;-72
2023/02/26 07:07:37;;;;;;;5.03;2.60;;;-1.00;99.90;;;;;;4897222;29;20994;-72
2023/02/26 07:10:06;;;;;;;6.43;2.07;;;-1.10;99.90;;;;;;4899003;29;20446;-72
2023/02/26 07:12:37;;;;;;;4.53;2.03;;;-1.00;99.90;;;;;;4898885;29;20575;-73
2023/02/26 07:15:06;;;;;;;5.13;2.30;;;-1.00;99.90;;;;;;4898853;29;20426;-73
2023/02/26 07:17:34;;;;;;;5.43;2.13;;;-1.00;99.90;;;;;;4899166;29;20501;-73
2023/02/26 07:20:08;;;;;;;6.10;2.70;;;-1.00;99.90;;;;;;4898979;29;20926;-73
2023/02/26 07:22:37;;;;;;;5.37;1.53;;;-1.00;99.90;;;;;;4899014;29;20467;-73
2023/02/26 07:25:07;;;;;;;6.87;2.00;;;-0.90;99.90;;;;;;4897554;29;20943;-73
2023/02/26 07:27:36;;;;;;;4.13;1.80;;;-0.90;99.90;;;;;;4899001;29;20445;-73
2023/02/26 07:30:07;;;;;;;6.33;1.93;;;-0.90;99.90;;;;;;4897694;29;20449;-73
2023/02/26 07:32:35;;;;;;;5.03;1.90;;;-0.80;99.90;;;;;;4898686;29;20552;-73
2023/02/26 07:35:04;;;;;;;4.27;1.60;;;-0.70;99.90;;;;;;4898554;29;20441;-73
2023/02/26 07:37:32;;;;;;;4.40;1.70;;;-0.70;99.90;;;;;;4898926;29;20790;-72
2023/02/26 07:40:00;;;;;;;5.00;2.53;;;-0.70;99.90;;;;;;4898511;29;20447;-72
2023/02/26 07:42:29;;;;;;;6.10;2.40;;;-0.60;99.90;;;;;;4897234;29;20844;-72
2023/02/26 07:44:59;;;;;;;5.10;2.40;;;-0.50;99.90;;;;;;4897250;29;20454;-73
2023/02/26 07:47:29;;;;;;;8.30;3.67;;;-0.50;99.90;;;;;;4898749;29;20437;-73
2023/02/26 07:49:57;;;;;;;6.10;2.10;;;-0.40;99.90;;;;;;4898415;29;20445;-73
2023/02/26 07:52:25;;;;;;;5.20;2.10;;;-0.40;99.90;;;;;;4898286;29;20461;-72
2023/02/26 07:54:53;;;;;;;6.80;2.60;;;-0.30;99.90;;;;;;4897162;29;20552;-73
2023/02/26 07:57:22;;;;;;;6.60;2.80;;;-0.20;99.90;;;;;;4897031;29;20484;-72
2023/02/26 07:59:50;;;;;;;4.63;2.47;;;-0.20;99.90;;;;;;4898212;29;20491;-73
2023/02/26 08:02:22;;;;;;;8.30;2.90;;;-0.10;99.90;;;;;;4898325;29;20552;-72
2023/02/26 08:04:50;;;;;;;5.40;2.50;;;0.00;99.90;;;;;;4898524;29;20866;-72
2023/02/26 08:07:19;;;;;;;5.10;2.20;;;0.20;99.90;;;;;;4898462;29;20441;-73
2023/02/26 08:09:47;;;;;;;4.43;2.10;;;0.30;99.90;;;;;;4912957;29;20819;-73
2023/02/26 08:12:15;;;;;;;4.50;2.63;;;0.40;99.90;;;;;;4912665;29;20478;-73
2023/02/26 08:14:43;;;;;;;5.80;3.37;;;0.50;99.90;;;;;;4898169;29;20489;-73
2023/02/26 08:17:11;;;;;;;6.73;3.63;;;0.60;99.90;;;;;;4896836;29;20489;-74
2023/02/26 08:19:41;;;;;;;5.43;2.57;;;0.70;99.90;;;;;;4899205;29;20447;-74
2023/02/26 08:22:09;;;;;;;5.70;2.47;;;0.90;99.90;;;;;;4900691;29;20481;-74
2023/02/26 08:24:38;;;;;;;7.30;2.60;;;1.00;99.90;;;;;;4902012;29;20544;-73
2023/02/26 08:27:06;;;;;;;4.87;1.90;;;1.20;99.90;;;;;;4902785;29;20447;-74
2023/02/26 08:29:34;;;;;;;4.60;2.00;;;1.30;99.90;;;;;;4900749;29;20508;-74
2023/02/26 08:32:02;;;;;;;3.60;1.50;;;1.40;99.90;;;;;;4900557;29;20545;-74
2023/02/26 08:34:32;;;;;;;3.17;1.37;;;1.50;99.90;;;;;;4900603;29;20489;-74
2023/02/26 08:37:01;;;;;;;6.00;2.33;;;1.60;99.90;;;;;;4900458;29;20476;-73
2023/02/26 08:39:32;;;;;;;4.77;1.90;;;1.70;99.90;;;;;;4900394;29;20460;-74
2023/02/26 08:42:00;;;;;;;6.23;2.13;;;1.80;99.90;;;;;;4901595;29;20463;-73
2023/02/26 08:44:29;;;;;;;6.17;1.73;;;1.90;99.90;;;;;;4901636;29;20446;-74
2023/02/26 08:46:57;;;;;;;4.33;1.50;;;2.00;99.90;;;;;;4900379;29;20446;-74
2023/02/26 08:49:25;;;;;;;4.27;1.43;;;2.00;99.90;;;;;;4901577;29;20445;-75
2023/02/26 08:51:54;;;;;;;7.90;2.90;;;2.00;99.90;;;;;;4901618;29;20466;-75
2023/02/26 08:54:23;;;;;;;6.40;1.80;;;2.10;99.90;;;;;;4900245;29;20962;-75
2023/02/26 08:56:54;;;;;;;3.97;1.60;;;2.10;99.90;;;;;;4900338;29;20491;-75
2023/02/26 08:59:22;;;;;;;5.37;1.97;;;2.10;99.90;;;;;;4901330;29;20427;-74
2023/02/26 09:01:50;;;;;;;3.90;1.17;;;2.10;99.90;;;;;;4901333;29;20466;-75
2023/02/26 09:04:19;;;;;;;4.20;1.73;;;2.20;99.90;;;;;;4900207;29;20454;-74
2023/02/26 09:06:47;;;;;;;7.37;1.70;;;2.20;99.90;;;;;;4900005;29;20451;-76
2023/02/26 09:09:15;;;;;;;4.60;1.60;;;2.20;99.90;;;;;;4900065;29;20475;-74
2023/02/26 09:11:45;;;;;;;4.43;1.63;;;2.20;99.90;;;;;;4901005;29;20466;-74
2023/02/26 09:14:13;;;;;;;3.83;1.20;;;2.30;99.90;;;;;;4899871;29;20815;-75
2023/02/26 09:16:41;;;;;;;4.27;1.63;;;2.30;99.90;;;;;;4901521;29;20483;-74
2023/02/26 09:19:10;;;;;;;7.50;1.50;;;2.30;99.90;;;;;;4901089;29;20449;-74
2023/02/26 09:21:38;;;;;;;5.80;1.90;;;2.40;99.90;;;;;;4899538;29;20857;-74
2023/02/26 09:24:07;;;;;;;4.60;1.20;;;2.40;99.90;;;;;;4901568;29;20478;-74
2023/02/26 09:26:37;;;;;;;3.90;1.50;;;2.50;99.90;;;;;;4902161;29;20462;-75
2023/02/26 09:29:07;;;;;;;5.27;1.60;;;2.50;99.90;;;;;;4901136;29;20527;-73
2023/02/26 09:31:35;;;;;;;3.40;1.40;;;2.50;99.90;;;;;;4899998;29;20535;-74
2023/02/26 09:34:04;;;;;;;4.33;1.50;;;2.60;99.90;;;;;;4899803;29;20516;-74
2023/02/26 09:36:32;;;;;;;5.13;1.30;;;2.60;99.90;;;;;;4899392;29;20487;-75
2023/02/26 09:39:00;;;;;;;4.97;1.50;;;2.70;99.90;;;;;;4900755;29;20451;-74
2023/02/26 09:41:32;;;;;;;4.93;1.60;;;2.70;99.90;;;;;;4899418;29;20479;-75
2023/02/26 09:44:14;;;;;;;4.77;1.43;;;2.70;99.90;;;;;;4899808;29;20455;-74
2023/02/26 09:46:51;;;;;;;4.07;1.20;;;2.90;99.90;;;;;;4899551;29;20459;-75
2023/02/26 09:49:27;;;;;;;4.60;2.00;;;2.90;99.90;;;;;;4899501;29;20455;-74
2023/02/26 09:52:02;;;;;;;6.83;1.93;;;2.90;99.90;;;;;;4900555;29;20491;-74
2023/02/26 09:54:34;;;;;;;6.53;3.23;;;3.00;99.90;;;;;;4900530;29;20456;-74
2023/02/26 09:57:04;;;;;;;4.33;1.80;;;3.00;99.90;;;;;;4900556;29;20470;-74
2023/02/26 09:59:34;;;;;;;4.60;1.73;;;3.00;99.90;;;;;;4900401;29;20449;-74
2023/02/26 10:02:11;;;;;;;4.30;1.70;;;3.10;99.90;;;;;;4900452;29;20469;-74
2023/02/26 10:04:50;;;;;;;4.57;2.03;;;3.10;99.90;;;;;;4899162;29;20435;-75
2023/02/26 10:07:30;;;;;;;3.93;1.50;;;3.10;99.90;;;;;;4900530;29;20788;-75
2023/02/26 10:10:08;;;;;;;5.53;2.67;;;3.20;99.90;;;;;;4899254;29;20448;-75
2023/02/26 10:12:41;;;;;;;3.80;1.60;;;3.20;99.90;;;;;;4898899;29;20479;-75
2023/02/26 10:15:15;;;;;;;4.60;2.03;;;3.20;99.90;;;;;;4900213;29;20428;-75
2023/02/26 10:17:56;;;;;;;5.00;1.60;;;3.20;99.90;;;;;;4898814;29;20845;-75
2023/02/26 10:20:30;;;;;;;5.57;2.10;;;3.30;99.90;;;;;;4898753;29;20555;-75
2023/02/26 10:23:07;;;;;;;5.33;2.07;;;3.30;99.90;;;;;;4899879;29;20503;-75
2023/02/26 10:25:41;;;;;;;4.83;1.70;;;3.30;99.90;;;;;;4900149;29;20428;-75
2023/02/26 10:28:27;;;;;;;5.27;1.40;;;3.40;99.90;;;;;;4898616;29;20990;-75
2023/02/26 10:31:02;;;;;;;3.43;1.30;;;3.40;99.90;;;;;;4900112;29;20520;-75
2023/02/26 10:33:39;;;;;;;3.67;1.23;;;3.50;99.90;;;;;;4898582;29;20449;-75
2023/02/26 10:36:16;;;;;;;4.00;1.47;;;3.50;99.90;;;;;;4899975;29;20428;-74
2023/02/26 10:38:49;;;;;;;4.10;1.37;;;3.50;99.90;;;;;;4899834;29;20465;-75
2023/02/26 10:41:23;;;;;;;4.20;1.73;;;3.50;99.90;;;;;;4899000;29;20990;-75
2023/02/26 10:44:00;;;;;;;6.23;1.60;;;3.60;99.90;;;;;;4898213;29;20559;-74
2023/02/26 10:46:38;;;;;;;3.20;1.50;;;3.60;99.90;;;;;;4898308;29;20811;-74
2023/02/26 10:49:22;;;;;;;4.60;1.60;;;3.70;99.90;;;;;;4898259;29;20448;-74
2023/02/26 10:51:51;;;;;;;3.80;1.67;;;3.70;99.90;;;;;;4899378;29;20465;-74
2023/02/26 10:54:23;;;;;;;5.13;1.53;;;3.80;99.90;;;;;;4898089;29;20567;-74
2023/02/26 10:56:51;;;;;;;5.37;1.57;;;3.90;99.90;;;;;;4899300;29;20436;-75
2023/02/26 10:59:19;;;;;;;3.60;1.70;;;3.90;99.90;;;;;;4899253;29;20440;-75
2023/02/26 11:01:51;;;;;;;5.10;1.80;;;3.90;99.90;;;;;;4899148;29;20611;-74
2023/02/26 11:04:23;;;;;;;4.10;1.53;;;4.00;99.90;;;;;;4899427;29;20932;-74
2023/02/26 11:06:55;;;;;;;3.33;1.40;;;4.00;99.90;;;;;;4897882;29;20900;-74
2023/02/26 11:09:26;;;;;;;5.70;1.70;;;4.10;99.90;;;;;;4899412;29;20433;-74
2023/02/26 11:11:56;;;;;;;3.20;1.40;;;4.10;99.90;;;;;;4899161;29;20468;-74
2023/02/26 11:14:25;;;;;;;3.93;1.27;;;4.10;99.90;;;;;;4898981;29;20453;-74
2023/02/26 11:17:01;;;;;;;5.33;1.90;;;4.20;99.90;;;;;;4899199;29;20434;-74
2023/02/26 11:19:33;;;;;;;4.50;2.10;;;4.20;99.90;;;;;;4899442;29;20428;-74
2023/02/26 11:22:03;;;;;;;3.50;1.40;;;4.30;99.90;;;;;;4898826;29;20472;-74
2023/02/26 11:24:34;;;;;;;3.97;1.00;;;4.40;99.90;;;;;;4897662;29;20499;-74
2023/02/26 11:27:05;;;;;;;4.70;1.17;;;4.50;99.90;;;;;;4897826;29;20437;-74
2023/02/26 11:29:38;;;;;;;3.37;1.57;;;4.50;99.90;;;;;;4899066;29;20422;-73
2023/02/26 11:32:17;;;;;;;3.00;1.30;;;4.60;99.90;;;;;;4898659;29;20543;-74
2023/02/26 11:34:47;;;;;;;5.13;1.60;;;4.70;99.90;;;;;;4899079;29;20433;-74
2023/02/26 11:37:19;;;;;;;4.73;2.00;;;4.70;99.90;;;;;;4898971;29;20437;-73
2023/02/26 11:39:47;;;;;;;5.33;1.90;;;4.70;99.90;;;;;;4898704;29;20433;-74
2023/02/26 11:42:17;;;;;;;5.27;1.93;;;4.80;99.90;;;;;;4898661;29;20461;-74
2023/02/26 11:44:47;;;;;;;3.20;1.10;;;4.80;99.90;;;;;;4899106;29;20859;-74
2023/02/26 11:47:20;;;;;;;3.07;1.20;;;4.90;99.90;;;;;;4898901;29;20974;-73
2023/02/26 11:49:52;;;;;;;4.70;1.50;;;4.90;99.90;;;;;;4898178;29;20511;-74
2023/02/26 11:52:27;;;;;;;5.87;1.47;;;4.90;99.90;;;;;;4898400;29;20465;-74
2023/02/26 11:55:00;;;;;;;3.10;1.10;;;4.90;99.90;;;;;;4898415;29;20429;-74
2023/02/26 11:57:30;;;;;;;3.73;1.50;;;4.80;99.90;;;;;;4899332;29;20517;-74
2023/02/26 11:59:59;;;;;;;3.20;1.07;;;4.80;99.90;;;;;;4899940;29;20544;-73
2023/02/26 12:02:34;;;;;;;6.77;1.60;;;4.70;99.90;;;;;;4903662;29;20531;-73
2023/02/26 12:05:05;;;;;;;3.47;1.30;;;4.60;99.90;;;;;;4903414;29;20421;-74
2023/02/26 12:07:34;;;;;;;4.20;1.90;;;4.60;99.90;;;;;;4903332;29;20440;-73
2023/02/26 12:10:02;;;;;;;4.00;1.30;;;4.60;99.90;;;;;;4902055;29;20963;-74
2023/02/26 12:12:49;;;;;;;4.10;1.73;;;4.70;99.90;;;;;;4902674;29;20477;-74
2023/02/26 12:15:32;;;;;;;3.53;1.60;;;4.70;99.90;;;;;;4903511;29;20441;-75
2023/02/26 12:18:30;;;;;;;4.97;2.37;;;4.70;99.90;;;;;;4902139;29;20543;-74
2023/02/26 12:21:10;;;;;;;3.53;1.97;;;4.80;99.90;;;;;;4901781;29;20543;-74
2023/02/26 12:24:26;;;;;;;4.30;2.37;;;4.80;99.90;;;;;;4902370;29;20432;-74
2023/02/26 12:27:04;;;;;;;3.80;1.50;;;4.90;99.90;;;;;;4846805;29;20458;-74
2023/02/26 12:29:48;;;;;;;5.27;2.03;;;5.00;99.90;;;;;;4849996;29;20845;-75
2023/02/26 12:32:32;;;;;;;3.50;1.33;;;5.00;99.90;;;;;;4887249;29;20477;-73
2023/02/26 12:35:22;;;;;;;3.07;1.10;;;5.00;99.90;;;;;;4897414;29;20460;-74
2023/02/26 12:37:59;;;;;;;5.93;1.27;;;5.10;99.90;;;;;;4898187;29;20915;-73
2023/02/26 12:41:04;;;;;;;3.57;1.17;;;5.10;99.90;;;;;;4898092;29;20425;-73
2023/02/26 12:43:40;;;;;;;5.53;1.50;;;5.10;99.90;;;;;;4875578;29;20512;-74
2023/02/26 12:46:23;;;;;;;3.20;1.10;;;5.10;99.90;;;;;;4896897;29;20441;-74
2023/02/26 12:49:19;;;;;;;3.53;1.30;;;5.10;99.90;;;;;;4899010;29;20794;-74
2023/02/26 12:52:07;;;;;;;3.80;1.47;;;5.10;99.90;;;;;;4898281;29;20457;-74
2023/02/26 12:54:51;;;;;;;3.83;1.80;;;5.10;99.90;;;;;;4896761;29;20453;-74
2023/02/26 12:57:50;;;;;;;4.20;1.30;;;5.10;99.90;;;;;;4896722;29;20450;-74
2023/02/26 13:00:45;;;;;;;3.47;1.17;;;5.10;99.90;;;;;;4894936;29;20468;-74
2023/02/26 13:03:43;;;;;;;4.67;1.70;;;5.10;99.90;;;;;;4898857;29;20512;-74
2023/02/26 13:06:49;;;;;;;3.30;1.30;;;5.10;99.90;;;;;;4900830;29;20433;-73
2023/02/26 13:09:30;;;;;;;3.30;1.37;;;5.20;99.90;;;;;;4880525;29;20461;-74
2023/02/26 13:12:08;;;;;;;4.37;1.23;;;5.30;99.90;;;;;;4900009;29;20809;-73
2023/02/26 13:14:47;;;;;;;3.67;1.60;;;5.30;99.90;;;;;;4901147;29;20978;-74
2023/02/26 13:17:27;;;;;;;3.43;1.30;;;5.40;99.90;;;;;;4901410;29;20426;-73
2023/02/26 13:19:59;;;;;;;5.97;1.50;;;5.40;99.90;;;;;;4901595;29;20478;-74